BEY weather

Beirut Rafic Hariri International Airport
Beirut, Mount Lebanon Governorate, Lebanon

Public forecast

Using degrees Celsius for public forecast. Weather courtesy of forecast.io.

Current aviation weather report (METAR) for Beirut Rafic Hariri International Airport

Retrieved 2019/10/16 06:00 UTC (46 minutes ago):

OLBA 160600Z 22003KT 8000 FEW040 29/19 Q1015 NOSIG

Aviation forecast (TAF) for Beirut Rafic Hariri International Airport

Retrieved 2019/10/16 06:00 UTC (46 minutes ago):

TAF OLBA 160400Z 1606/1712 22018G25KT 8000 BKN026 BECMG 1615/1618 22015KT TEMPO 1615/1624 -RA BECMG 1700/1703 18010KT TEMPO 1700/1706 RA BECMG 1706/1709 22012KT 7000 -RA BKN025 TEMPO 1706/1712 TSRA FEW020CB BKN022